Time;durP1;ratioP1;P1;durP2;ratioP2;P2;SDS_P1;SDS_P2;PMS_P1;PMS_P2;Temp;Humidity;BMP_temperature;BMP_pressure;BME280_temperature;BME280_humidity;BME280_pressure;Samples;Min_cycle;Max_cycle;Signal;HPM_P1;HPM_P2
2023/09/02 00:01:29;;;;;;;22.95;9.38;;;;;;;29.39;nan;97861.75;4945055;28;20055;-64
2023/09/02 00:03:58;;;;;;;28.73;10.10;;;;;;;29.47;nan;97872.94;4949172;28;20053;-65
2023/09/02 00:06:27;;;;;;;38.58;12.32;;;;;;;29.44;nan;97872.47;4948831;28;20047;-64
2023/09/02 00:08:57;;;;;;;40.25;11.88;;;;;;;29.47;nan;97878.38;4947909;28;20102;-65
2023/09/02 00:11:26;;;;;;;30.70;10.30;;;;;;;29.47;nan;97878.38;4947168;28;20059;-65
2023/09/02 00:13:56;;;;;;;33.75;10.48;;;;;;;29.48;nan;97880.75;4948747;28;20051;-64
2023/09/02 00:16:25;;;;;;;30.38;10.75;;;;;;;29.50;nan;97888.63;4944953;28;20161;-65
2023/09/02 00:18:54;;;;;;;33.47;10.80;;;;;;;29.55;nan;97894.69;4948523;28;20043;-65
2023/09/02 00:21:24;;;;;;;32.30;12.48;;;;;;;29.60;nan;97890.94;4947374;28;20070;-64
2023/09/02 00:24:02;;;;;;;33.58;10.73;;;;;;;29.56;nan;97890.81;4947485;28;20051;-65
2023/09/02 00:26:32;;;;;;;29.02;11.15;;;;;;;29.56;nan;97892.75;4924934;29;20058;-65
2023/09/02 00:29:02;;;;;;;27.65;10.70;;;;;;;29.53;nan;97904.31;4946618;28;20051;-65
2023/09/02 00:31:33;;;;;;;32.78;10.85;;;;;;;29.54;nan;97903.19;4926764;29;20475;-64
2023/09/02 00:34:02;;;;;;;24.23;9.57;;;;;;;29.47;nan;97905.69;4942450;28;20052;-66
2023/09/02 00:36:32;;;;;;;31.30;10.07;;;;;;;29.41;nan;97907.81;4929444;29;20059;-65
2023/09/02 00:39:01;;;;;;;33.83;11.18;;;;;;;29.37;nan;97915.88;4923143;29;20656;-65
2023/09/02 00:41:37;;;;;;;27.83;9.55;;;;;;;29.44;nan;97920.78;4928756;29;20099;-65
2023/09/02 00:44:07;;;;;;;30.00;10.57;;;;;;;29.37;nan;97929.50;4925671;29;20062;-64
2023/09/02 00:46:36;;;;;;;32.28;10.60;;;;;;;29.30;nan;97934.69;4911712;29;20494;-65
2023/09/02 00:49:05;;;;;;;37.30;9.93;;;;;;;29.26;nan;97931.00;4908971;29;20622;-65
2023/09/02 00:51:35;;;;;;;38.42;12.13;;;;;;;29.24;nan;97937.94;4926422;29;20056;-65
2023/09/02 00:54:04;;;;;;;28.85;8.73;;;;;;;29.24;nan;97938.72;4928274;29;20062;-65
2023/09/02 00:56:35;;;;;;;25.60;9.43;;;;;;;29.18;nan;97942.78;4902987;29;20063;-65
2023/09/02 00:59:06;;;;;;;35.95;10.25;;;;;;;29.20;nan;97945.19;4922130;29;20048;-65
2023/09/02 01:01:36;;;;;;;26.33;9.70;;;;;;;29.19;nan;97954.50;4920836;29;20381;-65
2023/09/02 01:04:06;;;;;;;41.60;10.48;;;;;;;29.19;nan;97952.56;4921163;29;20560;-65
2023/09/02 01:06:37;;;;;;;32.95;11.80;;;;;;;29.22;nan;97962.81;4924978;29;20052;-65
2023/09/02 01:09:07;;;;;;;34.30;11.68;;;;;;;29.20;nan;97954.16;4906094;29;20490;-65
2023/09/02 01:11:36;;;;;;;29.95;10.30;;;;;;;29.22;nan;97959.28;4928553;29;20158;-65
2023/09/02 01:14:06;;;;;;;28.38;10.05;;;;;;;29.23;nan;97967.13;4927890;29;20056;-65
2023/09/02 01:16:35;;;;;;;31.67;9.55;;;;;;;29.22;nan;97971.00;4927068;29;20389;-64
2023/09/02 01:19:08;;;;;;;31.13;9.48;;;;;;;29.21;nan;97974.06;4906853;29;20058;-65
2023/09/02 01:22:18;;;;;;;29.55;10.70;;;;;;;29.26;nan;97980.09;4902504;29;20063;-65
2023/09/02 01:25:06;;;;;;;32.70;11.27;;;;;;;29.25;nan;97975.81;4927163;29;20056;-66
2023/09/02 01:27:49;;;;;;;28.25;11.30;;;;;;;29.26;nan;97974.66;4906374;29;20052;-65
2023/09/02 01:30:19;;;;;;;;;;;;;;;29.28;nan;97985.22;4926455;29;20095;-66
2023/09/02 01:32:53;;;;;;;39.13;13.15;;;;;;;29.30;nan;97981.06;4920604;29;19930;-65
2023/09/02 01:35:29;;;;;;;40.28;13.30;;;;;;;29.36;nan;97981.66;4924593;29;20083;-65
2023/09/02 01:38:00;;;;;;;36.13;12.75;;;;;;;29.38;nan;97991.13;4933406;29;20055;-65
2023/09/02 01:40:32;;;;;;;37.85;14.15;;;;;;;29.44;nan;97989.00;4945094;28;20047;-65
2023/09/02 01:43:05;;;;;;;39.80;14.05;;;;;;;29.53;nan;97987.00;4926251;28;20047;-65
2023/09/02 01:45:36;;;;;;;47.05;15.23;;;;;;;29.58;nan;97988.72;4943435;28;20043;-65
2023/09/02 01:48:07;;;;;;;39.78;12.98;;;;;;;29.59;nan;97990.31;4931764;28;20051;-65
2023/09/02 01:50:39;;;;;;;35.60;13.82;;;;;;;29.63;nan;97999.44;4947048;28;20133;-65
2023/09/02 01:53:11;;;;;;;41.42;15.90;;;;;;;29.76;nan;97993.72;4923355;29;20058;-65
2023/09/02 01:55:41;;;;;;;41.03;16.42;;;;;;;29.89;nan;97994.59;4914523;29;20048;-66
2023/09/02 01:58:12;;;;;;;47.75;18.17;;;;;;;29.94;nan;97991.66;4926235;28;20059;-65
2023/09/02 02:00:42;;;;;;;45.85;19.15;;;;;;;29.95;nan;97989.72;4918522;29;20053;-65
2023/09/02 02:03:19;;;;;;;49.17;19.83;;;;;;;30.03;nan;97994.28;4921813;28;20471;-65
2023/09/02 02:05:53;;;;;;;49.92;20.15;;;;;;;30.12;nan;98006.72;4946613;28;20142;-65
2023/09/02 02:08:37;;;;;;;39.40;19.33;;;;;;;30.22;nan;98019.16;4929247;28;20050;-65
2023/09/02 02:11:07;;;;;;;45.63;20.08;;;;;;;30.26;nan;98009.97;4929023;28;20177;-65
2023/09/02 02:13:38;;;;;;;42.15;18.55;;;;;;;30.32;nan;98016.78;4931386;28;20146;-66
2023/09/02 02:16:07;;;;;;;54.25;19.98;;;;;;;30.50;nan;98022.88;4960440;28;20038;-65
2023/09/02 02:18:37;;;;;;;50.80;20.30;;;;;;;30.69;nan;98022.34;4934318;29;20637;-64
2023/09/02 02:21:06;;;;;;;50.45;20.52;;;;;;;30.78;nan;98023.03;4927570;28;20141;-66
2023/09/02 02:23:35;;;;;;;41.60;20.20;;;;;;;31.01;nan;98018.75;4930282;29;20059;-66
2023/09/02 02:26:06;;;;;;;51.25;20.13;;;;;;;31.17;nan;98025.13;4930016;28;20066;-65
2023/09/02 02:28:37;;;;;;;44.47;19.63;;;;;;;31.34;nan;98026.00;4932836;29;20047;-65
2023/09/02 02:31:09;;;;;;;56.35;21.98;;;;;;;31.21;nan;98028.75;4929630;28;20055;-65
2023/09/02 02:33:39;;;;;;;44.53;20.48;;;;;;;31.43;nan;98029.41;4929485;29;20057;-66
2023/09/02 02:36:09;;;;;;;54.22;23.42;;;;;;;31.38;nan;98035.91;4929749;28;20055;-66
2023/09/02 02:38:38;;;;;;;50.92;21.33;;;;;;;31.49;nan;98033.50;4946969;28;20055;-65
2023/09/02 02:41:07;;;;;;;51.22;22.88;;;;;;;31.53;nan;98043.44;4946710;28;20150;-66
2023/09/02 02:43:37;;;;;;;44.33;22.95;;;;;;;31.42;nan;98039.59;4930243;29;20051;-65
2023/09/02 02:46:06;;;;;;;50.38;23.02;;;;;;;31.50;nan;98037.84;4946889;28;20150;-65
2023/09/02 02:48:35;;;;;;;53.40;22.27;;;;;;;31.58;nan;98037.75;4926930;29;20047;-66
2023/09/02 02:51:05;;;;;;;48.47;20.98;;;;;;;31.64;nan;98043.78;4916768;28;20055;-65
2023/09/02 02:53:34;;;;;;;44.03;22.02;;;;;;;31.69;nan;98042.75;4930017;29;20098;-66
2023/09/02 02:56:05;;;;;;;43.05;19.42;;;;;;;31.88;nan;98054.66;4929142;28;20044;-65
2023/09/02 02:58:34;;;;;;;42.80;17.52;;;;;;;31.76;nan;98053.91;4938239;28;20063;-65
2023/09/02 03:01:06;;;;;;;42.47;18.00;;;;;;;31.70;nan;98060.75;4935625;28;20059;-66
2023/09/02 03:03:36;;;;;;;47.25;20.20;;;;;;;31.73;nan;98063.63;4945366;28;20129;-65
2023/09/02 03:06:05;;;;;;;45.85;20.15;;;;;;;31.87;nan;98066.75;4922370;28;20167;-64
2023/09/02 03:08:36;;;;;;;49.47;19.65;;;;;;;31.97;nan;98063.53;4928708;29;20059;-66
2023/09/02 03:11:06;;;;;;;53.40;21.88;;;;;;;32.12;nan;98074.91;4929375;28;20130;-64
2023/09/02 03:13:37;;;;;;;50.63;20.65;;;;;;;32.26;nan;98070.66;4929154;29;20051;-65
2023/09/02 03:16:15;;;;;;;53.30;19.17;;;;;;;32.18;nan;98077.06;4928626;28;20063;-65
2023/09/02 03:18:47;;;;;;;42.83;20.25;;;;;;;32.37;nan;98074.47;4929705;29;20542;-67
2023/09/02 03:21:17;;;;;;;45.47;21.08;;;;;;;32.40;nan;98078.44;4922384;29;20459;-64
2023/09/02 03:23:47;;;;;;;46.70;20.50;;;;;;;32.50;nan;98077.94;4943582;28;20055;-66
2023/09/02 03:26:16;;;;;;;38.97;19.27;;;;;;;32.54;nan;98078.81;4928515;28;20497;-65
2023/09/02 03:28:48;;;;;;;39.80;19.27;;;;;;;32.44;nan;98080.13;4929002;29;20150;-66
2023/09/02 03:31:19;;;;;;;43.08;19.42;;;;;;;32.57;nan;98080.06;4929776;29;20107;-66
2023/09/02 03:33:49;;;;;;;48.67;19.70;;;;;;;32.63;nan;98087.72;4932605;29;20079;-65
2023/09/02 03:36:20;;;;;;;30.50;16.23;;;;;;;32.69;nan;98080.81;4946372;28;20054;-66
2023/09/02 03:38:49;;;;;;;41.03;15.82;;;;;;;32.67;nan;98077.63;4940972;28;20051;-66
2023/09/02 03:41:19;;;;;;;29.83;13.13;;;;;;;32.69;nan;98078.09;4941238;28;20550;-65
2023/09/02 03:43:49;;;;;;;32.05;12.13;;;;;;;32.68;nan;98081.16;4938910;28;20130;-66
2023/09/02 03:46:20;;;;;;;31.25;12.38;;;;;;;32.75;nan;98081.38;4921227;29;20062;-66
2023/09/02 03:48:50;;;;;;;36.33;14.88;;;;;;;32.86;nan;98085.97;4919380;29;20040;-66
2023/09/02 03:51:23;;;;;;;35.00;13.82;;;;;;;32.94;nan;98092.41;4931713;28;20056;-65
2023/09/02 03:53:55;;;;;;;41.25;14.95;;;;;;;33.02;nan;98085.19;4943584;29;20511;-68
2023/09/02 03:56:25;;;;;;;34.97;13.07;;;;;;;32.87;nan;98087.56;4923491;29;20542;-68
2023/09/02 03:58:55;;;;;;;35.95;12.02;;;;;;;33.01;nan;98089.06;4944830;28;20059;-67
2023/09/02 04:01:24;;;;;;;29.90;12.02;;;;;;;33.08;nan;98087.28;4930997;28;20082;-67
2023/09/02 04:03:53;;;;;;;32.53;11.88;;;;;;;33.12;nan;98087.38;4942225;28;20047;-67
2023/09/02 04:06:23;;;;;;;30.77;11.68;;;;;;;33.21;nan;98088.81;4944340;28;20126;-67
2023/09/02 04:08:52;;;;;;;29.17;10.82;;;;;;;33.17;nan;98095.38;4932164;29;20660;-67
2023/09/02 04:11:23;;;;;;;29.60;11.98;;;;;;;33.32;nan;98094.56;4948690;28;20055;-67
2023/09/02 04:13:52;;;;;;;23.55;8.85;;;;;;;33.32;nan;98097.31;4923603;29;20075;-67
2023/09/02 04:16:22;;;;;;;21.73;7.30;;;;;;;33.33;nan;98101.63;4934391;28;20055;-68
2023/09/02 04:18:51;;;;;;;22.92;6.30;;;;;;;33.35;nan;98108.38;4921180;29;20223;-67
2023/09/02 04:21:20;;;;;;;20.30;6.15;;;;;;;33.44;nan;98105.44;4923962;29;20179;-66
2023/09/02 04:23:50;;;;;;;21.13;6.68;;;;;;;33.50;nan;98106.75;4947712;28;20371;-69
2023/09/02 04:26:21;;;;;;;23.55;8.20;;;;;;;33.59;nan;98109.31;4930733;28;20055;-67
2023/09/02 04:28:50;;;;;;;32.85;7.40;;;;;;;33.58;nan;98114.00;4930583;29;20051;-67
2023/09/02 04:31:22;;;;;;;22.02;6.75;;;;;;;33.63;nan;98113.72;4928203;29;20081;-67
2023/09/02 04:33:52;;;;;;;27.42;7.78;;;;;;;33.76;nan;98107.00;4930833;29;20126;-67
2023/09/02 04:36:21;;;;;;;32.10;7.35;;;;;;;33.81;nan;98103.94;4945464;28;20070;-67
2023/09/02 04:38:52;;;;;;;30.48;8.30;;;;;;;34.09;nan;98101.00;4930316;29;20074;-67
2023/09/02 04:41:22;;;;;;;20.80;6.72;;;;;;;34.16;nan;98108.63;4930104;28;20161;-67
2023/09/02 04:43:51;;;;;;;20.83;6.00;;;;;;;34.28;nan;98105.75;4930681;29;20047;-67
2023/09/02 04:46:20;;;;;;;21.58;6.10;;;;;;;34.47;nan;98104.94;4930416;28;20055;-67
2023/09/02 04:48:49;;;;;;;18.52;5.88;;;;;;;34.72;nan;98109.75;4927808;29;20055;-67
2023/09/02 04:51:20;;;;;;;21.92;5.10;;;;;;;34.78;nan;98112.22;4929801;28;20154;-69
2023/09/02 04:53:53;;;;;;;27.40;6.78;;;;;;;35.20;nan;98118.47;4946490;28;20757;-68
2023/09/02 04:56:23;;;;;;;27.73;9.33;;;;;;;35.46;nan;98125.94;4930806;28;20055;-68
2023/09/02 04:58:52;;;;;;;28.88;8.75;;;;;;;35.42;nan;98117.63;4930502;29;20344;-68
2023/09/02 05:01:23;;;;;;;42.38;9.88;;;;;;;35.56;nan;98117.88;4915765;29;20051;-69
2023/09/02 05:03:55;;;;;;;32.60;6.60;;;;;;;35.57;nan;98119.47;4926433;29;20047;-68
2023/09/02 05:06:25;;;;;;;24.58;6.85;;;;;;;35.85;nan;98123.81;4929519;28;20146;-68
2023/09/02 05:08:56;;;;;;;22.77;7.72;;;;;;;35.86;nan;98122.63;4929583;29;20512;-69
2023/09/02 05:11:32;;;;;;;25.02;7.10;;;;;;;36.08;nan;98118.97;4926398;29;20124;-68
2023/09/02 05:14:01;;;;;;;23.60;8.77;;;;;;;36.57;nan;98124.31;4929462;28;20804;-69
2023/09/02 05:16:33;;;;;;;21.40;6.40;;;;;;;36.28;nan;98116.91;4926857;28;20054;-67
2023/09/02 05:19:03;;;;;;;19.75;6.55;;;;;;;36.20;nan;98118.78;4944323;28;20078;-68
2023/09/02 05:21:33;;;;;;;21.55;5.90;;;;;;;35.88;nan;98120.31;4921099;29;20055;-67
2023/09/02 05:24:03;;;;;;;17.35;5.93;;;;;;;36.66;nan;98121.28;4927683;28;20055;-65
2023/09/02 05:26:33;;;;;;;28.88;5.95;;;;;;;36.64;nan;98116.16;4943643;28;20147;-67
2023/09/02 05:29:02;;;;;;;18.77;5.25;;;;;;;36.43;nan;98111.16;4946655;28;20218;-67
2023/09/02 05:31:32;;;;;;;21.30;5.65;;;;;;;36.33;nan;98114.63;4944642;28;20051;-67
2023/09/02 05:34:01;;;;;;;27.83;6.22;;;;;;;36.73;nan;98111.13;4945653;28;20062;-67
2023/09/02 05:36:30;;;;;;;21.02;5.30;;;;;;;36.85;nan;98099.00;4945924;28;20085;-66
2023/09/02 05:39:00;;;;;;;17.02;6.40;;;;;;;36.63;nan;98106.28;4945680;28;20131;-67
2023/09/02 05:41:29;;;;;;;23.95;6.18;;;;;;;36.42;nan;98100.53;4941675;28;20067;-67
2023/09/02 05:44:00;;;;;;;15.73;5.10;;;;;;;36.80;nan;98096.59;4945567;28;20705;-67
2023/09/02 05:46:29;;;;;;;17.70;5.13;;;;;;;36.57;nan;98096.72;4946043;28;20051;-67
2023/09/02 05:48:58;;;;;;;22.05;4.95;;;;;;;36.60;nan;98101.53;4947484;28;20265;-66
2023/09/02 05:51:29;;;;;;;21.70;5.30;;;;;;;36.76;nan;98096.56;4945261;28;20083;-65
2023/09/02 05:53:58;;;;;;;22.38;4.90;;;;;;;36.75;nan;98099.69;4946179;28;20130;-65
2023/09/02 05:56:27;;;;;;;18.75;5.32;;;;;;;37.16;nan;98098.53;4946710;28;20063;-66
2023/09/02 05:58:57;;;;;;;29.17;6.45;;;;;;;36.69;nan;98096.47;4944875;28;20490;-66
2023/09/02 06:01:26;;;;;;;19.40;4.88;;;;;;;36.71;nan;98096.91;4942930;28;20058;-66
2023/09/02 06:03:55;;;;;;;17.60;4.95;;;;;;;36.74;nan;98096.13;4944855;28;20059;-65
2023/09/02 06:06:25;;;;;;;20.25;5.22;;;;;;;37.06;nan;98090.94;4942042;28;20723;-68
2023/09/02 06:08:54;;;;;;;24.23;6.30;;;;;;;36.69;nan;98076.41;4942483;28;20134;-66
2023/09/02 06:11:24;;;;;;;23.45;5.95;;;;;;;36.90;nan;98082.09;4939456;28;20057;-66
2023/09/02 06:13:53;;;;;;;17.25;5.65;;;;;;;36.92;nan;98088.81;4940717;28;20059;-66
2023/09/02 06:16:23;;;;;;;22.55;6.22;;;;;;;36.71;nan;98085.06;4943120;28;20543;-66
2023/09/02 06:18:53;;;;;;;25.17;8.00;;;;;;;36.99;nan;98079.81;4941288;28;20226;-67
2023/09/02 06:21:30;;;;;;;24.73;6.57;;;;;;;37.09;nan;98070.84;4940929;28;20176;-67
2023/09/02 06:23:59;;;;;;;18.95;5.80;;;;;;;36.90;nan;98076.56;4943349;28;20051;-67
2023/09/02 06:26:31;;;;;;;20.83;6.95;;;;;;;36.64;nan;98069.25;4941496;28;20054;-67
2023/09/02 06:29:00;;;;;;;17.98;5.28;;;;;;;36.81;nan;98068.63;4935803;28;20153;-67
2023/09/02 06:31:29;;;;;;;16.95;5.32;;;;;;;36.56;nan;98075.06;4939164;28;20062;-67
2023/09/02 06:33:59;;;;;;;23.70;6.45;;;;;;;36.73;nan;98069.72;4939020;28;20053;-67
2023/09/02 06:36:29;;;;;;;19.58;4.88;;;;;;;37.04;nan;98076.69;4917595;29;20768;-67
2023/09/02 06:38:58;;;;;;;18.40;5.68;;;;;;;37.20;nan;98077.25;4935238;28;20048;-67
2023/09/02 06:41:28;;;;;;;21.17;5.75;;;;;;;37.38;nan;98071.03;4920948;29;20054;-64
2023/09/02 06:43:58;;;;;;;19.80;5.85;;;;;;;36.95;nan;98065.19;4940536;28;20074;-67
2023/09/02 06:46:28;;;;;;;19.90;6.22;;;;;;;36.48;nan;98065.88;4925475;29;20066;-65
2023/09/02 06:48:58;;;;;;;24.48;5.18;;;;;;;36.55;nan;98062.41;4943393;28;20694;-68
2023/09/02 06:51:28;;;;;;;24.35;5.85;;;;;;;36.62;nan;98068.81;4941828;28;20062;-67
2023/09/02 06:53:57;;;;;;;18.50;4.55;;;;;;;36.74;nan;98068.53;4943721;28;20066;-66
2023/09/02 06:56:27;;;;;;;19.02;5.68;;;;;;;36.49;nan;98061.97;4935336;28;20490;-65
2023/09/02 06:58:56;;;;;;;20.25;5.82;;;;;;;36.71;nan;98071.28;4935057;28;20079;-66
2023/09/02 07:01:26;;;;;;;16.27;6.15;;;;;;;36.74;nan;98054.72;4943220;28;20134;-68
2023/09/02 07:03:56;;;;;;;21.17;5.78;;;;;;;36.52;nan;98043.84;4914406;28;20051;-66
2023/09/02 07:06:26;;;;;;;21.27;6.18;;;;;;;36.54;nan;98042.31;4931897;28;20047;-67
2023/09/02 07:09:14;;;;;;;31.00;7.00;;;;;;;36.48;nan;98043.81;4939732;28;20082;-67
2023/09/02 07:11:44;;;;;;;22.77;6.55;;;;;;;36.33;nan;98040.13;4943977;28;20057;-68
2023/09/02 07:14:13;;;;;;;24.08;6.00;;;;;;;36.52;nan;98033.59;4932307;28;20084;-66
2023/09/02 07:16:45;;;;;;;19.05;6.22;;;;;;;36.59;nan;98036.47;4875825;29;20063;-63
2023/09/02 07:19:14;;;;;;;26.67;6.10;;;;;;;36.83;nan;98032.31;4927104;28;20070;-66
2023/09/02 07:21:46;;;;;;;26.25;5.43;;;;;;;36.79;nan;98032.31;4916982;29;20047;-64
2023/09/02 07:24:16;;;;;;;19.42;5.32;;;;;;;36.65;nan;98029.41;5659740;23;20074;-69
2023/09/02 07:26:47;;;;;;;20.40;5.85;;;;;;;36.58;nan;98031.28;4953243;28;20050;-64
2023/09/02 07:29:17;;;;;;;22.55;6.47;;;;;;;36.62;nan;98027.44;4958214;28;20057;-64
2023/09/02 07:31:47;;;;;;;19.85;6.43;;;;;;;36.81;nan;98018.13;4962749;28;20050;-63
2023/09/02 07:34:16;;;;;;;25.33;7.57;;;;;;;36.79;nan;98026.00;4961911;28;20569;-66
2023/09/02 07:36:45;;;;;;;21.00;6.32;;;;;;;36.51;nan;98011.94;4963213;28;20102;-64
2023/09/02 07:39:16;;;;;;;31.20;6.68;;;;;;;36.41;nan;98011.44;4944600;28;20051;-66
2023/09/02 07:41:46;;;;;;;20.83;6.18;;;;;;;36.43;nan;98013.81;4957374;28;20542;-65
2023/09/02 07:44:16;;;;;;;25.60;7.40;;;;;;;36.23;nan;98010.47;4602982;28;9999765;-67
2023/09/02 07:46:45;;;;;;;20.55;6.55;;;;;;;36.28;nan;98001.84;4910529;28;20137;-66
2023/09/02 07:49:14;;;;;;;37.85;7.28;;;;;;;36.39;nan;97991.72;4959154;28;20051;-67
2023/09/02 07:51:47;;;;;;;22.67;7.07;;;;;;;36.11;nan;97990.63;4959786;28;20038;-67
2023/09/02 07:54:16;;;;;;;22.70;6.28;;;;;;;36.06;nan;97986.22;4960202;28;20066;-67
2023/09/02 07:56:46;;;;;;;21.30;6.50;;;;;;;36.01;nan;97989.31;4957103;28;20125;-66
2023/09/02 07:59:15;;;;;;;18.40;5.93;;;;;;;36.11;nan;97979.59;4959262;28;20054;-68
2023/09/02 08:01:47;;;;;;;18.20;6.32;;;;;;;36.08;nan;97981.13;4962577;28;20054;-67
2023/09/02 08:04:19;;;;;;;23.42;6.60;;;;;;;35.97;nan;97972.75;4957713;28;20137;-66
2023/09/02 08:06:48;;;;;;;16.15;6.38;;;;;;;35.93;nan;97971.13;4961077;28;20165;-66
2023/09/02 08:09:34;;;;;;;25.63;6.47;;;;;;;35.76;nan;97974.47;5599894;23;20063;-68
2023/09/02 08:12:04;;;;;;;17.58;6.35;;;;;;;35.74;nan;97968.53;4915794;29;20059;-67
2023/09/02 08:14:34;;;;;;;28.65;8.40;;;;;;;35.75;nan;97964.63;4920969;29;20051;-67
2023/09/02 08:17:03;;;;;;;19.20;6.13;;;;;;;35.71;nan;97963.78;4915509;29;20055;-66
2023/09/02 08:19:32;;;;;;;20.98;6.55;;;;;;;35.77;nan;97956.75;4908642;29;20069;-69
2023/09/02 08:22:01;;;;;;;26.17;6.13;;;;;;;35.89;nan;97951.75;4924332;29;20043;-68
2023/09/02 08:24:31;;;;;;;19.17;6.47;;;;;;;35.85;nan;97953.69;4930021;28;20051;-67
2023/09/02 08:27:00;;;;;;;17.65;7.30;;;;;;;35.77;nan;97945.72;4912655;29;20607;-67
2023/09/02 08:29:29;;;;;;;20.38;6.70;;;;;;;35.62;nan;97932.94;4921918;29;20167;-65
2023/09/02 08:31:58;;;;;;;23.00;6.85;;;;;;;35.68;nan;97935.00;4918181;29;20055;-68
2023/09/02 08:34:28;;;;;;;20.88;6.65;;;;;;;35.67;nan;97938.94;4920217;29;20052;-65
2023/09/02 08:37:06;;;;;;;20.02;6.75;;;;;;;35.73;nan;97928.34;4916709;29;20056;-66
2023/09/02 08:39:36;;;;;;;24.27;6.90;;;;;;;35.44;nan;97925.25;4915239;29;20130;-66
2023/09/02 08:42:05;;;;;;;23.80;7.30;;;;;;;35.52;nan;97915.91;4921533;29;20055;-66
2023/09/02 08:44:39;;;;;;;20.08;6.47;;;;;;;35.56;nan;97916.72;4924741;29;20059;-66
2023/09/02 08:47:09;;;;;;;25.20;7.30;;;;;;;35.68;nan;97910.19;4928939;29;20119;-66
2023/09/02 08:49:39;;;;;;;27.15;7.53;;;;;;;35.73;nan;97912.63;4922495;29;20519;-65
2023/09/02 08:52:09;;;;;;;27.30;7.97;;;;;;;35.78;nan;97906.78;4919888;29;20077;-66
2023/09/02 08:54:39;;;;;;;28.60;8.55;;;;;;;35.78;nan;97906.78;4931625;29;20051;-65
2023/09/02 08:57:15;;;;;;;22.50;7.82;;;;;;;35.72;nan;97913.78;4920961;29;20052;-66
2023/09/02 08:59:51;;;;;;;36.75;9.05;;;;;;;35.68;nan;97898.38;4923823;28;20387;-65
2023/09/02 09:02:21;;;;;;;16.88;7.68;;;;;;;35.69;nan;97894.47;4923076;29;20573;-66
2023/09/02 09:04:56;;;;;;;20.17;8.07;;;;;;;35.70;nan;97883.06;4925124;29;20149;-67
2023/09/02 09:07:27;;;;;;;29.23;7.57;;;;;;;35.58;nan;97880.56;4921090;29;20051;-63
2023/09/02 09:10:05;;;;;;;19.25;7.70;;;;;;;35.57;nan;97878.97;4922583;28;20142;-64
2023/09/02 09:12:35;;;;;;;23.00;7.20;;;;;;;35.56;nan;97877.38;4897882;29;20138;-64
2023/09/02 09:15:06;;;;;;;20.30;7.28;;;;;;;35.64;nan;97876.31;4921240;29;20043;-65
2023/09/02 09:17:36;;;;;;;22.55;7.25;;;;;;;35.69;nan;97870.44;4922767;29;20051;-66
2023/09/02 09:20:06;;;;;;;25.17;7.90;;;;;;;35.64;nan;97875.47;4580957;28;10000499;-63
2023/09/02 09:22:39;;;;;;;21.20;7.88;;;;;;;35.63;nan;97868.41;4924465;29;20063;-63
2023/09/02 09:25:08;;;;;;;27.98;7.80;;;;;;;35.65;nan;97868.81;4917300;29;20070;-64
2023/09/02 09:27:38;;;;;;;22.25;6.57;;;;;;;35.58;nan;97853.00;4919605;29;20058;-64
2023/09/02 09:30:27;;;;;;;23.30;8.38;;;;;;;35.49;nan;97847.78;4921126;28;20527;-64
2023/09/02 09:33:00;;;;;;;30.98;7.32;;;;;;;35.54;nan;97843.88;4916680;29;20653;-66
2023/09/02 09:35:30;;;;;;;21.08;7.60;;;;;;;35.51;nan;97836.38;4919626;29;20048;-68
2023/09/02 09:38:00;;;;;;;18.00;7.35;;;;;;;35.53;nan;97845.06;4924350;29;20055;-66
2023/09/02 09:40:35;;;;;;;18.77;7.18;;;;;;;35.62;nan;97837.28;4925196;29;20142;-67
2023/09/02 09:43:16;;;;;;;22.15;7.53;;;;;;;35.51;nan;97837.16;4922205;29;20435;-65
2023/09/02 09:45:51;;;;;;;20.75;8.05;;;;;;;35.45;nan;97829.66;4918437;29;20147;-66
2023/09/02 09:48:20;;;;;;;35.35;7.85;;;;;;;35.39;nan;97837.44;4917520;29;20066;-66
2023/09/02 09:50:51;;;;;;;25.60;8.30;;;;;;;35.26;nan;97833.34;4921629;29;20162;-68
2023/09/02 09:53:21;;;;;;;23.27;6.88;;;;;;;35.34;nan;97824.00;4902707;29;20075;-68
2023/09/02 09:55:50;;;;;;;22.50;7.60;;;;;;;35.37;nan;97823.25;4919255;29;20059;-65
2023/09/02 09:58:23;;;;;;;17.40;7.05;;;;;;;35.32;nan;97815.31;4890599;29;20052;-67
2023/09/02 10:00:52;;;;;;;26.75;7.00;;;;;;;35.25;nan;97823.50;4916332;29;20539;-66
2023/09/02 10:03:31;;;;;;;24.77;6.95;;;;;;;35.26;nan;97818.78;4922398;29;20065;-66
2023/09/02 10:06:01;;;;;;;22.20;6.85;;;;;;;35.18;nan;97811.63;4924194;28;20124;-65
2023/09/02 10:08:50;;;;;;;18.50;6.35;;;;;;;35.16;nan;97809.25;4923728;28;20055;-64
2023/09/02 10:11:21;;;;;;;28.77;7.43;;;;;;;35.12;nan;97811.13;4915631;29;20177;-66
2023/09/02 10:13:56;;;;;;;20.80;6.78;;;;;;;35.04;nan;97804.75;4917381;29;20051;-65
2023/09/02 10:16:27;;;;;;;20.70;6.18;;;;;;;35.02;nan;97798.03;4903252;29;20062;-68
2023/09/02 10:19:01;;;;;;;25.30;7.75;;;;;;;34.99;nan;97796.81;4921517;29;20437;-65
2023/09/02 10:21:33;;;;;;;25.20;7.53;;;;;;;34.86;nan;97791.94;4920822;29;20044;-65
2023/09/02 10:24:04;;;;;;;;;;;;;;;34.79;nan;97794.59;4915553;29;20534;-66
2023/09/02 10:26:45;;;;;;;21.23;6.65;;;;;;;34.82;nan;97797.41;4919794;29;19934;-66
2023/09/02 10:29:21;;;;;;;27.00;7.53;;;;;;;34.75;nan;97791.78;4920892;29;20043;-63
2023/09/02 10:31:58;;;;;;;24.90;6.47;;;;;;;34.80;nan;97783.22;4924569;29;20056;-67
2023/09/02 10:34:36;;;;;;;25.67;6.90;;;;;;;34.75;nan;97786.28;4924801;28;20058;-64
2023/09/02 10:37:08;;;;;;;28.58;6.63;;;;;;;34.70;nan;97781.91;4919518;29;20063;-64
2023/09/02 10:39:58;;;;;;;22.90;5.72;;;;;;;34.70;nan;97776.41;4905221;29;20048;-63
2023/09/02 10:42:31;;;;;;;31.60;6.45;;;;;;;34.68;nan;97778.75;4928822;29;20122;-66
2023/09/02 10:45:01;;;;;;;25.48;6.78;;;;;;;34.68;nan;97770.50;4925311;29;20059;-67
2023/09/02 10:47:31;;;;;;;22.40;6.45;;;;;;;34.66;nan;97775.56;4906159;29;20352;-67
2023/09/02 10:50:01;;;;;;;20.42;6.18;;;;;;;34.61;nan;97777.84;4895109;29;20063;-65
2023/09/02 10:52:30;;;;;;;25.33;6.22;;;;;;;34.58;nan;97770.31;4924129;29;20127;-64
2023/09/02 10:55:10;;;;;;;22.95;5.47;;;;;;;34.59;nan;97769.94;4925163;29;20123;-64
2023/09/02 10:57:56;;;;;;;25.20;6.25;;;;;;;34.49;nan;97770.59;4920796;29;20056;-65
2023/09/02 11:00:28;;;;;;;23.45;6.20;;;;;;;34.51;nan;97767.47;4918474;29;20234;-66
2023/09/02 11:02:59;;;;;;;17.88;5.25;;;;;;;34.45;nan;97767.00;4936737;29;20051;-65
2023/09/02 11:05:28;;;;;;;19.10;5.65;;;;;;;34.40;nan;97766.53;4925844;29;20157;-65
2023/09/02 11:07:58;;;;;;;23.88;6.13;;;;;;;34.37;nan;97770.81;4921737;29;20052;-66
2023/09/02 11:10:51;;;;;;;26.98;6.60;;;;;;;34.34;nan;97765.28;4906181;29;20055;-66
2023/09/02 11:13:21;;;;;;;22.60;6.45;;;;;;;34.28;nan;97775.78;4904618;29;20055;-66
2023/09/02 11:16:12;;;;;;;26.80;6.50;;;;;;;34.24;nan;97759.25;4916141;29;20058;-65
2023/09/02 11:18:41;;;;;;;17.90;5.82;;;;;;;34.23;nan;97763.16;4929468;29;20054;-65
2023/09/02 11:21:30;;;;;;;19.77;6.45;;;;;;;34.19;nan;97759.56;4926669;29;20035;-64
2023/09/02 11:24:19;;;;;;;20.92;6.50;;;;;;;34.15;nan;97755.16;4587757;29;10000400;-63
2023/09/02 11:26:56;;;;;;;25.08;6.82;;;;;;;34.05;nan;97751.06;4922595;28;20930;-65
2023/09/02 11:29:30;;;;;;;22.92;5.72;;;;;;;34.01;nan;97752.19;4912689;29;20055;-64
2023/09/02 11:32:01;;;;;;;29.55;7.10;;;;;;;33.92;nan;97746.16;4927349;29;20054;-67
2023/09/02 11:34:31;;;;;;;31.80;7.55;;;;;;;33.83;nan;97733.47;4917912;29;20062;-67
2023/09/02 11:37:01;;;;;;;28.50;7.25;;;;;;;33.79;nan;97735.34;4916288;29;20063;-68
2023/09/02 11:39:34;;;;;;;25.25;6.93;;;;;;;33.78;nan;97728.28;4913130;29;20107;-68
2023/09/02 11:42:11;;;;;;;24.05;6.57;;;;;;;33.76;nan;97722.38;4914022;29;20058;-68
2023/09/02 11:44:53;;;;;;;40.08;7.50;;;;;;;33.72;nan;97721.53;4895287;29;20126;-66
2023/09/02 11:47:23;;;;;;;22.80;6.60;;;;;;;33.73;nan;97720.34;4916980;29;20460;-67
2023/09/02 11:49:53;;;;;;;20.52;6.75;;;;;;;33.71;nan;97717.19;4916852;29;20055;-66
2023/09/02 11:52:28;;;;;;;19.40;6.28;;;;;;;33.68;nan;97719.88;4926785;29;20111;-68
2023/09/02 11:55:00;;;;;;;24.70;6.93;;;;;;;33.64;nan;97719.75;4923979;29;20581;-64
2023/09/02 11:57:30;;;;;;;18.55;6.22;;;;;;;33.62;nan;97722.09;4914518;29;20044;-65
2023/09/02 11:59:59;;;;;;;22.65;6.30;;;;;;;33.63;nan;97712.72;4916979;29;20047;-67